createdAt,value
2022-12-14T00:01:35.660Z,-6.00
2022-12-14T00:04:02.454Z,-6.00
2022-12-14T00:06:31.318Z,-6.00
2022-12-14T00:09:00.392Z,-6.10
2022-12-14T00:11:28.556Z,-6.10
2022-12-14T00:14:00.530Z,-6.10
2022-12-14T00:16:30.014Z,-6.10
2022-12-14T00:18:59.094Z,-6.10
2022-12-14T00:21:27.276Z,-6.00
2022-12-14T00:23:55.347Z,-6.00
2022-12-14T00:26:24.852Z,-6.00
2022-12-14T00:28:53.882Z,-6.00
2022-12-14T00:31:21.549Z,-5.90
2022-12-14T00:33:50.334Z,-5.90
2022-12-14T00:36:17.797Z,-5.90
2022-12-14T00:38:44.762Z,-5.80
2022-12-14T00:41:11.865Z,-5.90
2022-12-14T00:43:39.191Z,-5.90
2022-12-14T00:46:06.501Z,-5.90
2022-12-14T00:48:33.899Z,-5.90
2022-12-14T00:51:00.863Z,-5.90
2022-12-14T00:53:27.851Z,-5.90
2022-12-14T00:55:54.695Z,-5.90
2022-12-14T00:58:23.770Z,-5.90
2022-12-14T01:01:02.002Z,-5.90
2022-12-14T01:03:29.373Z,-5.90
2022-12-14T01:05:56.586Z,-5.90
2022-12-14T01:08:24.185Z,-5.90
2022-12-14T01:10:51.769Z,-6.00
2022-12-14T01:13:18.805Z,-6.00
2022-12-14T01:15:45.651Z,-6.00
2022-12-14T01:18:13.025Z,-6.00
2022-12-14T01:20:39.815Z,-6.00
2022-12-14T01:23:06.597Z,-5.90
2022-12-14T01:25:33.514Z,-5.90
2022-12-14T01:28:00.284Z,-5.90
2022-12-14T01:30:27.125Z,-5.90
2022-12-14T01:32:53.977Z,-5.90
2022-12-14T01:35:20.784Z,-5.80
2022-12-14T01:37:49.198Z,-5.70
2022-12-14T01:40:16.832Z,-5.70
2022-12-14T01:42:43.796Z,-5.70
2022-12-14T01:45:22.249Z,-5.60
2022-12-14T01:47:55.950Z,-5.70
2022-12-14T01:50:49.105Z,-5.70
2022-12-14T01:53:21.597Z,-5.70
2022-12-14T01:55:54.172Z,-5.80
2022-12-14T01:58:26.199Z,-5.70
2022-12-14T02:00:58.446Z,-5.80
2022-12-14T02:03:40.370Z,-5.80
2022-12-14T02:06:19.802Z,-5.70
2022-12-14T02:08:50.440Z,-5.70
2022-12-14T02:11:35.766Z,-5.70
2022-12-14T02:14:02.517Z,-5.70
2022-12-14T02:16:29.398Z,-5.80
2022-12-14T02:18:56.265Z,-5.80
2022-12-14T02:21:36.722Z,-5.80
2022-12-14T02:24:09.459Z,-5.80
2022-12-14T02:26:52.229Z,-5.80
2022-12-14T02:29:27.925Z,-5.70
2022-12-14T02:32:21.577Z,-5.80
2022-12-14T02:34:53.463Z,-5.80
2022-12-14T02:37:41.321Z,-5.70
2022-12-14T02:40:21.668Z,-5.80
2022-12-14T02:42:58.211Z,-5.80
2022-12-14T02:45:40.993Z,-5.70
2022-12-14T02:48:22.872Z,-5.60
2022-12-14T02:51:03.395Z,-5.60
2022-12-14T02:53:38.838Z,-5.50
2022-12-14T02:56:13.956Z,-5.60
2022-12-14T02:58:47.986Z,-5.50
2022-12-14T03:01:19.326Z,-5.50
2022-12-14T03:03:46.387Z,-5.50
2022-12-14T03:06:27.505Z,-5.40
2022-12-14T03:09:00.341Z,-5.30
2022-12-14T03:11:41.443Z,-5.30
2022-12-14T03:14:20.704Z,-5.40
2022-12-14T03:16:50.620Z,-5.40
2022-12-14T03:19:30.894Z,-5.50
2022-12-14T03:22:09.471Z,-5.60
2022-12-14T03:24:43.051Z,-5.50
2022-12-14T03:27:22.382Z,-5.60
2022-12-14T03:29:57.839Z,-5.60
2022-12-14T03:32:29.430Z,-5.60
2022-12-14T03:35:01.566Z,-5.50
2022-12-14T03:38:06.553Z,-5.50
2022-12-14T03:40:41.396Z,-5.50
2022-12-14T03:43:50.119Z,-5.40
2022-12-14T03:47:03.304Z,-5.50
2022-12-14T03:49:41.932Z,-5.50
2022-12-14T03:52:35.701Z,-5.50
2022-12-14T03:55:29.208Z,-5.50
2022-12-14T03:58:17.002Z,-5.50
2022-12-14T04:01:02.241Z,-5.50
2022-12-14T04:03:42.785Z,-5.50
2022-12-14T04:06:21.939Z,-5.60
2022-12-14T04:09:25.695Z,-5.60
2022-12-14T04:12:18.487Z,-5.60
2022-12-14T04:15:10.246Z,-5.60
2022-12-14T04:17:58.127Z,-5.50
2022-12-14T04:20:43.693Z,-5.50
2022-12-14T04:23:16.563Z,-5.50
2022-12-14T04:26:05.048Z,-5.60
2022-12-14T04:28:57.597Z,-5.60
2022-12-14T04:31:28.520Z,-5.70
2022-12-14T04:33:59.233Z,-5.70
2022-12-14T04:36:34.043Z,-5.70
2022-12-14T04:39:06.293Z,-5.70
2022-12-14T04:41:38.039Z,-5.70
2022-12-14T04:44:12.225Z,-5.70
2022-12-14T04:46:40.933Z,-5.60
2022-12-14T04:49:23.202Z,-5.60
2022-12-14T04:52:04.845Z,-5.60
2022-12-14T04:54:45.731Z,-5.60
2022-12-14T04:57:27.671Z,-5.70
2022-12-14T04:59:55.494Z,-5.70
2022-12-14T05:02:49.723Z,-5.70
2022-12-14T05:05:18.457Z,-5.70
2022-12-14T05:07:56.413Z,-5.60
2022-12-14T05:10:44.330Z,-5.60
2022-12-14T05:13:36.088Z,-5.60
2022-12-14T05:16:03.311Z,-5.50
2022-12-14T05:18:30.245Z,-5.50
2022-12-14T05:20:57.023Z,-5.50
2022-12-14T05:23:23.808Z,-5.50
2022-12-14T05:25:50.614Z,-5.50
2022-12-14T05:28:17.423Z,-5.40
2022-12-14T05:30:45.434Z,-5.40
2022-12-14T05:33:20.353Z,-5.40
2022-12-14T05:35:47.259Z,-5.40
2022-12-14T05:38:14.068Z,-5.30
2022-12-14T05:40:40.971Z,-5.40
2022-12-14T05:43:09.492Z,-5.40
2022-12-14T05:45:36.669Z,-5.50
2022-12-14T05:48:03.692Z,-5.40
2022-12-14T05:50:31.295Z,-5.40
2022-12-14T05:52:58.411Z,-5.40
2022-12-14T05:55:25.205Z,-5.40
2022-12-14T05:57:51.993Z,-5.40
2022-12-14T06:00:18.996Z,-5.30
2022-12-14T06:02:45.839Z,-5.30
2022-12-14T06:05:12.679Z,-5.30
2022-12-14T06:07:39.758Z,-5.30
2022-12-14T06:10:06.845Z,-5.30
2022-12-14T06:12:33.617Z,-5.30
2022-12-14T06:15:00.403Z,-5.30
2022-12-14T06:17:27.144Z,-5.40
2022-12-14T06:19:53.913Z,-5.40
2022-12-14T06:22:21.332Z,-5.30
2022-12-14T06:24:48.135Z,-5.40
2022-12-14T06:27:14.947Z,-5.40
2022-12-14T06:29:41.747Z,-5.40
2022-12-14T06:32:08.517Z,-5.50
2022-12-14T06:34:39.096Z,-5.50
2022-12-14T06:37:07.600Z,-5.50
2022-12-14T06:39:34.422Z,-5.50
2022-12-14T06:42:01.253Z,-5.40
2022-12-14T06:44:28.114Z,-5.40
2022-12-14T06:46:55.774Z,-5.30
2022-12-14T06:49:22.646Z,-5.40
2022-12-14T06:51:49.488Z,-5.40
2022-12-14T06:54:17.583Z,-5.40
2022-12-14T06:56:46.521Z,-5.30
2022-12-14T06:59:14.800Z,-5.30
2022-12-14T07:01:42.386Z,-5.30
2022-12-14T07:04:09.689Z,-5.20
2022-12-14T07:06:38.893Z,-5.20
2022-12-14T07:09:07.150Z,-5.20
2022-12-14T07:11:34.416Z,-5.20
2022-12-14T07:14:03.179Z,-5.20
2022-12-14T07:16:29.960Z,-5.30
2022-12-14T07:18:57.012Z,-5.20
2022-12-14T07:21:24.865Z,-5.30
2022-12-14T07:23:52.477Z,-5.20
2022-12-14T07:26:25.277Z,-5.20
2022-12-14T07:28:52.731Z,-5.20
2022-12-14T07:31:24.880Z,-5.10
2022-12-14T07:33:57.093Z,-5.10
2022-12-14T07:36:26.163Z,-5.10
2022-12-14T07:38:53.878Z,-5.10
2022-12-14T07:41:26.522Z,-5.10
2022-12-14T07:43:55.135Z,-5.10
2022-12-14T07:46:26.938Z,-5.00
2022-12-14T07:48:57.689Z,-5.00
2022-12-14T07:51:36.233Z,-5.00
2022-12-14T07:54:05.289Z,-5.00
2022-12-14T07:56:35.554Z,-5.00
2022-12-14T07:59:04.979Z,-5.10
2022-12-14T08:01:34.035Z,-5.20
2022-12-14T08:04:06.042Z,-5.20
2022-12-14T08:06:33.589Z,-5.20
2022-12-14T08:09:01.169Z,-5.20
2022-12-14T08:11:28.541Z,-5.20
2022-12-14T08:13:57.224Z,-5.20
2022-12-14T08:16:24.618Z,-5.10
2022-12-14T08:18:53.918Z,-5.10
2022-12-14T08:21:22.284Z,-5.20
2022-12-14T08:23:50.204Z,-5.10
2022-12-14T08:26:17.455Z,-5.10
2022-12-14T08:28:44.785Z,-5.10
2022-12-14T08:31:14.601Z,-5.20
2022-12-14T08:33:43.104Z,-5.20
2022-12-14T08:36:12.771Z,-5.20
2022-12-14T08:38:41.256Z,-5.20
2022-12-14T08:41:11.854Z,-5.10
2022-12-14T08:43:40.480Z,-5.10
2022-12-14T08:46:11.244Z,-5.10
2022-12-14T08:48:38.253Z,-5.10
2022-12-14T08:51:07.929Z,-5.00
2022-12-14T08:53:35.796Z,-5.10
2022-12-14T08:56:11.722Z,-5.00
2022-12-14T08:58:40.473Z,-5.00
2022-12-14T09:01:13.351Z,-4.90
2022-12-14T09:03:41.817Z,-4.90
2022-12-14T09:06:11.496Z,-4.90
2022-12-14T09:08:38.644Z,-4.80
2022-12-14T09:11:06.877Z,-4.80
2022-12-14T09:13:34.374Z,-4.80
2022-12-14T09:16:04.437Z,-4.80
2022-12-14T09:18:32.626Z,-4.70
2022-12-14T09:21:00.535Z,-4.70
2022-12-14T09:23:29.670Z,-4.70
2022-12-14T09:26:11.921Z,-4.70
2022-12-14T09:28:42.242Z,-4.60
2022-12-14T09:31:11.836Z,-4.50
2022-12-14T09:33:39.176Z,-4.50
2022-12-14T09:36:09.392Z,-4.50
2022-12-14T09:38:37.942Z,-4.30
2022-12-14T09:41:07.603Z,-4.40
2022-12-14T09:43:44.251Z,-4.30
2022-12-14T09:46:25.641Z,-4.40
2022-12-14T09:48:54.510Z,-4.30
2022-12-14T09:51:23.866Z,-4.30
2022-12-14T09:54:02.665Z,-4.30
2022-12-14T09:56:30.242Z,-4.20
2022-12-14T09:58:59.332Z,-4.20
2022-12-14T10:02:29.016Z,-4.20
2022-12-14T10:04:51.314Z,-4.20
2022-12-14T10:07:34.281Z,-4.30
2022-12-14T10:10:40.396Z,-4.20
2022-12-14T10:13:32.505Z,-4.20
2022-12-14T10:16:13.416Z,-4.20
2022-12-14T10:19:08.695Z,-4.20
2022-12-14T10:21:47.379Z,-4.20
2022-12-14T10:24:21.837Z,-4.00
2022-12-14T10:26:54.768Z,-4.10
2022-12-14T10:29:57.019Z,-4.10
2022-12-14T10:32:48.948Z,-4.00
2022-12-14T10:35:19.083Z,-3.90
2022-12-14T10:37:53.703Z,-4.00
2022-12-14T10:40:33.739Z,-4.00
2022-12-14T10:43:08.805Z,-3.90
2022-12-14T10:45:54.267Z,-3.90
2022-12-14T10:48:33.551Z,-3.90
2022-12-14T10:51:22.032Z,-3.80
2022-12-14T10:54:07.348Z,-3.70
2022-12-14T10:56:36.030Z,-3.70
2022-12-14T10:59:14.939Z,-3.80
2022-12-14T11:01:42.479Z,-3.80
2022-12-14T11:04:35.752Z,-3.70
2022-12-14T11:07:09.208Z,-3.60
2022-12-14T11:09:37.843Z,-3.70
2022-12-14T11:12:08.805Z,-3.60
2022-12-14T11:14:41.460Z,-3.50
2022-12-14T11:17:38.686Z,-3.60
2022-12-14T11:20:23.142Z,-3.60
2022-12-14T11:23:05.252Z,-3.60
2022-12-14T11:25:36.557Z,-3.70
2022-12-14T11:28:14.769Z,-3.60
2022-12-14T11:30:52.244Z,-3.70
2022-12-14T11:33:19.192Z,-3.60
2022-12-14T11:35:52.488Z,-3.60
2022-12-14T11:38:20.062Z,-3.60
2022-12-14T11:40:47.428Z,-3.50
2022-12-14T11:43:34.569Z,-3.40
2022-12-14T11:46:01.840Z,-3.40
2022-12-14T11:48:30.122Z,-3.30
2022-12-14T11:51:15.412Z,-3.20
2022-12-14T11:53:42.253Z,-3.20
2022-12-14T11:56:15.997Z,-3.20
2022-12-14T11:58:54.751Z,-3.30
2022-12-14T12:01:25.617Z,-3.30
2022-12-14T12:03:56.915Z,-3.20
2022-12-14T12:06:29.846Z,-3.30
2022-12-14T12:09:02.620Z,-3.20
2022-12-14T12:11:34.798Z,-3.30
2022-12-14T12:14:22.406Z,-3.40
2022-12-14T12:16:49.262Z,-3.40
2022-12-14T12:19:22.020Z,-3.50
2022-12-14T12:21:49.248Z,-3.60
2022-12-14T12:24:20.683Z,-3.60
2022-12-14T12:27:00.556Z,-3.60
2022-12-14T12:29:31.134Z,-3.60
2022-12-14T12:32:03.718Z,-3.40
2022-12-14T12:34:49.275Z,-3.30
2022-12-14T12:37:28.180Z,-3.20
2022-12-14T12:40:00.612Z,-3.40
2022-12-14T12:42:51.936Z,-3.20
2022-12-14T12:45:21.942Z,-3.10
2022-12-14T12:48:07.032Z,-3.20
2022-12-14T12:50:39.091Z,-3.10
2022-12-14T12:53:19.055Z,-3.10
2022-12-14T12:55:53.627Z,-3.10
2022-12-14T12:58:32.641Z,-3.00
2022-12-14T13:01:05.265Z,-2.80
2022-12-14T13:03:42.377Z,-2.70
2022-12-14T13:06:21.803Z,-2.70
2022-12-14T13:08:55.973Z,-2.70
2022-12-14T13:11:38.529Z,-2.90
2022-12-14T13:14:22.837Z,-3.10
2022-12-14T13:16:52.454Z,-3.10
2022-12-14T13:19:54.725Z,-3.10
2022-12-14T13:22:28.434Z,-3.10
2022-12-14T13:24:59.750Z,-3.10
2022-12-14T13:27:40.693Z,-3.00
2022-12-14T13:30:24.709Z,-3.10
2022-12-14T13:33:20.495Z,-3.10
2022-12-14T13:36:22.848Z,-3.10
2022-12-14T13:39:07.999Z,-3.10
2022-12-14T13:41:53.416Z,-3.10
2022-12-14T13:44:54.322Z,-3.10
2022-12-14T13:47:29.546Z,-3.10
2022-12-14T13:52:49.457Z,-3.00
2022-12-14T13:55:36.001Z,-3.00
2022-12-14T13:58:26.709Z,-3.00
2022-12-14T14:01:00.371Z,-3.00
2022-12-14T14:03:37.356Z,-3.00
2022-12-14T14:06:32.547Z,-3.00
2022-12-14T14:09:03.249Z,-3.10
2022-12-14T14:11:38.333Z,-3.10
2022-12-14T14:14:43.746Z,-3.00
2022-12-14T14:17:39.209Z,-3.00
2022-12-14T14:20:27.201Z,-3.00
2022-12-14T14:23:12.846Z,-3.00
2022-12-14T14:26:10.321Z,-2.90
2022-12-14T14:28:38.083Z,-3.00
2022-12-14T14:31:05.871Z,-2.90
2022-12-14T14:33:46.643Z,-2.90
2022-12-14T14:36:25.406Z,-2.90
2022-12-14T14:38:55.102Z,-2.90
2022-12-14T14:41:38.157Z,-2.90
2022-12-14T14:44:19.936Z,-2.80
2022-12-14T14:46:49.566Z,-2.80
2022-12-14T14:49:25.826Z,-2.80
2022-12-14T14:51:52.734Z,-2.80
2022-12-14T14:57:52.168Z,-2.80
2022-12-14T15:00:19.124Z,-2.80
2022-12-14T15:02:46.342Z,-2.80
2022-12-14T15:08:20.746Z,-2.80
2022-12-14T15:10:50.251Z,-2.80
2022-12-14T15:13:24.450Z,-2.80
2022-12-14T15:15:53.571Z,-2.80
2022-12-14T15:18:26.176Z,-2.80
2022-12-14T15:21:07.070Z,-2.80
2022-12-14T15:23:49.518Z,-2.80
2022-12-14T15:26:28.802Z,-2.80
2022-12-14T15:28:58.162Z,-2.80
2022-12-14T15:31:39.886Z,-2.70
2022-12-14T15:34:07.901Z,-2.80
2022-12-14T15:36:37.901Z,-2.70
2022-12-14T15:39:04.745Z,-2.80
2022-12-14T15:41:33.432Z,-2.80
2022-12-14T15:44:00.957Z,-2.80
2022-12-14T15:46:31.273Z,-2.80
2022-12-14T15:49:06.963Z,-2.80
2022-12-14T15:51:36.429Z,-2.80
2022-12-14T15:54:05.521Z,-2.80
2022-12-14T15:56:36.881Z,-2.80
2022-12-14T15:59:34.336Z,-2.80
2022-12-14T16:02:17.041Z,-2.80
2022-12-14T16:04:44.953Z,-2.80
2022-12-14T16:07:38.582Z,-2.80
2022-12-14T16:10:28.346Z,-2.80
2022-12-14T16:13:13.869Z,-2.80
2022-12-14T16:15:42.715Z,-2.80
2022-12-14T16:18:17.775Z,-2.70
2022-12-14T16:20:54.525Z,-2.80
2022-12-14T16:23:36.065Z,-2.80
2022-12-14T16:26:15.227Z,-2.60
2022-12-14T16:28:42.736Z,-2.70
2022-12-14T16:31:22.233Z,-2.60
2022-12-14T16:34:15.074Z,-2.60
2022-12-14T16:36:45.461Z,-2.70
2022-12-14T16:39:23.781Z,-2.70
2022-12-14T16:42:01.688Z,-2.70
2022-12-14T16:44:31.597Z,-2.70
2022-12-14T16:47:01.211Z,-2.70
2022-12-14T16:49:28.076Z,-2.80
2022-12-14T16:52:16.188Z,-2.80
2022-12-14T16:54:43.145Z,-2.70
2022-12-14T16:57:20.877Z,-2.70
2022-12-14T16:59:56.793Z,-2.70
2022-12-14T17:02:46.272Z,-2.80
2022-12-14T17:05:18.503Z,-2.80
2022-12-14T17:07:45.357Z,-2.80
2022-12-14T17:10:17.894Z,-2.80
2022-12-14T17:12:45.194Z,-2.70
2022-12-14T17:15:17.021Z,-2.80
2022-12-14T17:17:46.024Z,-2.70
2022-12-14T17:20:36.852Z,-2.70
2022-12-14T17:23:07.619Z,-2.60
2022-12-14T17:25:35.550Z,-2.70
2022-12-14T17:28:02.439Z,-2.60
2022-12-14T17:30:29.326Z,-2.60
2022-12-14T17:32:57.458Z,-2.60
2022-12-14T17:35:32.213Z,-2.60
2022-12-14T17:37:59.616Z,-2.70
2022-12-14T17:40:27.560Z,-2.80
2022-12-14T17:42:58.569Z,-2.60
2022-12-14T17:45:28.053Z,-2.40
2022-12-14T17:47:55.848Z,-2.40
2022-12-14T17:50:23.011Z,-2.40
2022-12-14T17:52:50.436Z,-2.50
2022-12-14T17:55:22.314Z,-2.50
2022-12-14T17:57:50.009Z,-2.50
2022-12-14T18:00:37.756Z,-2.50
2022-12-14T18:03:05.490Z,-2.50
2022-12-14T18:05:33.207Z,-2.50
2022-12-14T18:08:00.211Z,-2.50
2022-12-14T18:10:27.681Z,-2.50
2022-12-14T18:12:55.479Z,-2.50
2022-12-14T18:15:26.220Z,-2.50
2022-12-14T18:17:53.317Z,-2.60
2022-12-14T18:20:21.665Z,-2.50
2022-12-14T18:22:50.009Z,-2.50
2022-12-14T18:25:34.124Z,-2.50
2022-12-14T18:28:04.190Z,-2.50
2022-12-14T18:30:39.485Z,-2.50
2022-12-14T18:33:15.662Z,-2.50
2022-12-14T18:35:43.795Z,-2.50
2022-12-14T18:38:10.902Z,-2.50
2022-12-14T18:40:39.217Z,-2.50
2022-12-14T18:43:06.073Z,-2.50
2022-12-14T18:45:34.942Z,-2.60
2022-12-14T18:48:01.988Z,-2.60
2022-12-14T18:50:29.756Z,-2.70
2022-12-14T18:52:57.381Z,-2.70
2022-12-14T18:55:29.907Z,-2.70
2022-12-14T18:57:59.584Z,-2.70
2022-12-14T19:00:29.617Z,-2.70
2022-12-14T19:03:02.142Z,-2.70
2022-12-14T19:05:30.406Z,-2.70
2022-12-14T19:07:58.754Z,-2.50
2022-12-14T19:10:30.957Z,-2.50
2022-12-14T19:12:58.616Z,-2.60
2022-12-14T19:15:31.157Z,-2.70
2022-12-14T19:17:58.555Z,-2.70
2022-12-14T19:20:26.782Z,-2.70
2022-12-14T19:22:53.798Z,-2.70
2022-12-14T19:25:22.411Z,-2.60
2022-12-14T19:30:36.972Z,-2.60
2022-12-14T19:33:04.020Z,-2.60
2022-12-14T19:35:31.808Z,-2.50
2022-12-14T19:37:58.665Z,-2.60
2022-12-14T19:40:26.213Z,-2.50
2022-12-14T19:42:53.251Z,-2.60
2022-12-14T19:45:20.337Z,-2.60
2022-12-14T19:47:47.188Z,-2.50
2022-12-14T19:50:15.519Z,-2.50
2022-12-14T19:52:43.422Z,-2.60
2022-12-14T19:55:11.574Z,-2.50
2022-12-14T19:57:40.147Z,-2.60
2022-12-14T20:00:09.136Z,-2.50
2022-12-14T20:02:38.842Z,-2.50
2022-12-14T20:05:06.633Z,-2.60
2022-12-14T20:07:35.426Z,-2.60
2022-12-14T20:10:06.114Z,-2.70
2022-12-14T20:12:34.198Z,-2.50
2022-12-14T20:15:01.091Z,-2.50
2022-12-14T20:17:27.999Z,-2.60
2022-12-14T20:19:55.051Z,-2.60
2022-12-14T20:22:21.885Z,-2.50
2022-12-14T20:24:49.756Z,-2.60
2022-12-14T20:27:17.381Z,-2.60
2022-12-14T20:29:44.218Z,-2.60
2022-12-14T20:32:11.660Z,-2.60
2022-12-14T20:34:39.156Z,-2.60
2022-12-14T20:37:08.069Z,-2.60
2022-12-14T20:39:34.905Z,-2.70
2022-12-14T20:42:01.787Z,-2.70
2022-12-14T20:44:29.122Z,-2.70
2022-12-14T20:46:56.052Z,-2.80
2022-12-14T20:49:29.430Z,-2.80
2022-12-14T20:51:56.882Z,-2.80
2022-12-14T20:54:24.498Z,-2.80
2022-12-14T20:56:51.555Z,-2.80
2022-12-14T20:59:18.403Z,-2.80
2022-12-14T21:01:51.690Z,-2.80
2022-12-14T21:04:22.344Z,-2.80
2022-12-14T21:06:49.342Z,-2.80
2022-12-14T21:09:16.500Z,-2.80
2022-12-14T21:12:04.521Z,-2.80
2022-12-14T21:14:39.502Z,-2.80
2022-12-14T21:17:06.588Z,-2.90
2022-12-14T21:19:35.958Z,-2.90
2022-12-14T21:22:07.625Z,-2.90
2022-12-14T21:27:30.203Z,-2.90
2022-12-14T21:29:57.018Z,-2.90
2022-12-14T21:32:24.120Z,-2.90
2022-12-14T21:34:51.222Z,-2.90
2022-12-14T21:37:18.421Z,-2.90
2022-12-14T21:39:52.315Z,-2.90
2022-12-14T21:42:23.878Z,-2.90
2022-12-14T21:44:52.700Z,-2.90
2022-12-14T21:47:25.639Z,-2.80
2022-12-14T21:49:53.269Z,-2.90
2022-12-14T21:52:23.829Z,-2.80
2022-12-14T21:54:50.663Z,-2.90
2022-12-14T21:57:42.067Z,-2.90
2022-12-14T22:00:10.406Z,-2.90
2022-12-14T22:02:41.501Z,-2.80
2022-12-14T22:05:09.391Z,-2.80
2022-12-14T22:07:36.174Z,-2.80
2022-12-14T22:10:03.654Z,-2.80
2022-12-14T22:12:30.603Z,-2.80
2022-12-14T22:14:57.568Z,-2.80
2022-12-14T22:17:24.499Z,-2.80
2022-12-14T22:19:52.177Z,-2.80
2022-12-14T22:22:19.055Z,-2.80
2022-12-14T22:24:49.222Z,-2.80
2022-12-14T22:27:16.118Z,-2.80
2022-12-14T22:29:42.941Z,-2.70
2022-12-14T22:32:12.348Z,-2.80
2022-12-14T22:34:39.473Z,-2.70
2022-12-14T22:37:06.537Z,-2.70
2022-12-14T22:39:33.499Z,-2.70
2022-12-14T22:42:00.344Z,-2.70
2022-12-14T22:44:27.292Z,-2.80
2022-12-14T22:46:54.241Z,-2.80
2022-12-14T22:49:21.221Z,-2.80
2022-12-14T22:51:48.233Z,-2.80
2022-12-14T22:54:22.454Z,-2.80
2022-12-14T22:57:02.383Z,-2.80
2022-12-14T22:59:42.914Z,-2.80
2022-12-14T23:02:10.064Z,-2.80
2022-12-14T23:04:38.045Z,-2.80
2022-12-14T23:07:05.314Z,-2.80
2022-12-14T23:09:50.861Z,-2.80
2022-12-14T23:12:36.223Z,-2.80
2022-12-14T23:15:21.982Z,-2.80
2022-12-14T23:18:07.151Z,-2.90
2022-12-14T23:20:52.607Z,-2.80
2022-12-14T23:23:37.936Z,-2.90
2022-12-14T23:26:23.529Z,-2.90
2022-12-14T23:29:08.961Z,-2.80
2022-12-14T23:31:54.265Z,-2.80
2022-12-14T23:34:39.803Z,-2.90
2022-12-14T23:37:25.088Z,-2.80
2022-12-14T23:40:10.468Z,-2.80
2022-12-14T23:42:55.889Z,-2.80
2022-12-14T23:45:41.160Z,-2.80
2022-12-14T23:48:26.617Z,-2.80
2022-12-14T23:51:12.229Z,-2.80
2022-12-14T23:53:57.581Z,-2.80
2022-12-14T23:56:42.999Z,-2.80
2022-12-14T23:59:32.266Z,-2.80
